Euskara    
Meteorología y climatología de Navarra
Datos de la estación - Meteo Navarra

Estación de Bardenas (El Yugo) GN

Altitud 486 m.


Datos desde el 18/10/2020 hasta el 19/10/2020 en horario solar
Los datos son PROVISIONALES

Anterior Página 1 de 1 Siguiente Descargar: Formato para Excel 2000 o superior   Formato csv   Formato para OpenOffice Calc
Fecha Temperatura Humedad relativa Radiación global Insolación Precipitación Vel. viento 10 m Vel. viento 10 m Dir. viento 10 m
°C % W/m² s l/m² m/s km/h °
18/10/2020 0:00 11.3 59 0.0 0 0.0 2.1 7.5 304
18/10/2020 0:10 10.8 61 0.0 0 0.0 2.1 7.7 295
18/10/2020 0:20 10.6 63 0.0 0 0.0 2.6 9.4 288
18/10/2020 0:30 10.4 64 0.0 0 0.0 2.7 9.6 290
18/10/2020 0:40 10.3 65 0.0 0 0.0 2.6 9.5 285
18/10/2020 0:50 10.2 65 0.0 0 0.0 2.9 10.4 292
18/10/2020 1:00 10.5 64 0.0 0 0.0 2.5 9.1 296
18/10/2020 1:10 10.6 64 0.0 0 0.0 2.3 8.4 317
18/10/2020 1:20 10.4 65 0.0 0 0.0 2.9 10.3 333
18/10/2020 1:30 10.1 67 0.0 0 0.0 3.0 10.7 335
18/10/2020 1:40 9.8 70 0.0 0 0.0 2.8 10.0 335
18/10/2020 1:50 9.4 72 0.0 0 0.0 3.1 11.1 335
18/10/2020 2:00 9.3 72 0.0 0 0.0 3.7 13.2 326
18/10/2020 2:10 9.4 71 0.0 0 0.0 3.6 13.1 326
18/10/2020 2:20 9.9 70 0.0 0 0.0 3.7 13.1 317
18/10/2020 2:30 10.4 68 0.0 0 0.0 3.7 13.2 304
18/10/2020 2:40 10.2 68 0.0 0 0.0 3.7 13.4 308
18/10/2020 2:50 10.2 69 0.0 0 0.0 3.5 12.6 321
18/10/2020 3:00 9.8 71 0.0 0 0.0 4.0 14.3 326
18/10/2020 3:10 9.6 71 0.0 0 0.0 3.5 12.6 321
18/10/2020 3:20 9.4 71 0.0 0 0.0 2.9 10.4 311
18/10/2020 3:30 9.1 73 0.0 0 0.0 3.0 10.9 324
18/10/2020 3:40 8.9 74 0.0 0 0.0 3.0 10.7 318
18/10/2020 3:50 9.0 73 0.0 0 0.0 2.7 9.7 311
18/10/2020 4:00 8.8 74 0.0 0 0.0 2.4 8.6 291
18/10/2020 4:10 8.2 77 0.0 0 0.0 2.6 9.3 313
18/10/2020 4:20 8.0 78 0.0 0 0.0 2.9 10.5 328
18/10/2020 4:30 8.0 77 0.0 0 0.0 2.8 9.9 324
18/10/2020 4:40 8.5 74 0.0 0 0.0 2.9 10.3 332
18/10/2020 4:50 8.3 74 0.0 0 0.0 3.0 10.8 326
18/10/2020 5:00 8.2 75 0.0 0 0.0 2.9 10.4 327
18/10/2020 5:10 8.2 75 0.0 0 0.0 3.1 11.1 310
18/10/2020 5:20 8.0 75 0.0 0 0.0 3.1 11.0 284
18/10/2020 5:30 7.3 79 0.0 0 0.0 2.8 9.9 294
18/10/2020 5:40 7.3 78 0.0 0 0.0 2.5 8.9 315
18/10/2020 5:50 7.5 77 0.0 0 0.0 3.3 11.8 327
18/10/2020 6:00 7.1 79 0.0 0 0.0 3.5 12.5 341
18/10/2020 6:10 6.5 82 0.0 0 0.0 3.4 12.4 347
18/10/2020 6:20 6.3 83 0.0 0 0.0 3.3 11.7 345
18/10/2020 6:30 6.4 83 0.0 0 0.0 2.9 10.4 331
18/10/2020 6:40 7.0 81 21.9 22 0.0 3.2 11.6 325
18/10/2020 6:50 7.2 80 38.6 600 0.0 2.9 10.3 321
18/10/2020 7:00 7.4 79 59.7 600 0.0 2.8 10.2 330
18/10/2020 7:10 7.6 78 87.3 600 0.0 2.6 9.2 342
18/10/2020 7:20 7.9 77 124.9 600 0.0 2.3 8.2 348
18/10/2020 7:30 8.3 77 166.5 600 0.0 1.4 5.2 12
18/10/2020 7:40 8.8 76 175.5 600 0.0 0.6 2.2 19
18/10/2020 7:50 9.2 74 179.9 600 0.0 0.4 1.4 316
18/10/2020 8:00 9.1 75 199.0 600 0.0 1.1 4.1 230
18/10/2020 8:10 9.3 75 260.6 600 0.0 0.6 2.0 295
18/10/2020 8:20 10.2 71 270.9 600 0.0 1.0 3.6 234
18/10/2020 8:30 10.1 72 258.0 600 0.0 0.5 1.8 255
18/10/2020 8:40 10.5 70 265.0 600 0.0 1.0 3.7 31
18/10/2020 8:50 10.8 68 334.8 600 0.0 0.3 1.0 19
18/10/2020 9:00 11.6 64 402.1 600 0.0 0.6 2.2 292
18/10/2020 9:10 12.4 62 402.3 600 0.0 0.7 2.6 12
18/10/2020 9:20 12.3 62 315.8 600 0.0 0.9 3.2 38
18/10/2020 9:30 12.0 63 263.5 408 0.0 0.8 2.7 25
18/10/2020 9:40 11.6 65 367.2 596 0.0 1.3 4.6 23
18/10/2020 9:50 12.2 63 526.0 600 0.0 1.4 4.9 349
18/10/2020 10:00 12.7 60 498.0 600 0.0 1.5 5.3 5
18/10/2020 10:10 12.9 58 305.4 298 0.0 2.0 7.2 8
18/10/2020 10:20 12.8 59 489.4 500 0.0 1.7 6.0 340
18/10/2020 10:30 12.7 60 391.5 342 0.0 1.3 4.6 358
18/10/2020 10:40 13.3 57 608.1 600 0.0 1.9 6.7 300
18/10/2020 10:50 13.9 55 618.5 600 0.0 1.6 5.8 330
18/10/2020 11:00 14.6 53 626.8 600 0.0 1.9 6.9 341
18/10/2020 11:10 15.3 51 633.3 600 0.0 1.3 4.8 328
18/10/2020 11:20 15.6 50 631.7 600 0.0 1.9 6.8 350
18/10/2020 11:30 15.9 49 637.1 600 0.0 1.3 4.8 15
18/10/2020 11:40 16.1 48 640.9 600 0.0 1.9 7.0 355
18/10/2020 11:50 16.2 48 616.4 600 0.0 2.0 7.2 345
18/10/2020 12:00 16.8 47 608.6 600 0.0 1.1 4.1 322
18/10/2020 12:10 16.8 46 628.3 600 0.0 1.2 4.4 345
18/10/2020 12:20 17.0 45 607.8 600 0.0 1.0 3.7 44
18/10/2020 12:30 17.4 44 591.3 600 0.0 1.5 5.3 22
18/10/2020 12:40 17.9 42 557.8 600 0.0 1.7 6.1 43
18/10/2020 12:50 17.9 41 561.1 600 0.0 1.2 4.5 52
18/10/2020 13:00 18.3 40 581.2 600 0.0 0.6 2.3 64
18/10/2020 13:10 19.4 38 591.7 600 0.0 0.8 2.9 113
18/10/2020 13:20 20.1 36 552.2 600 0.0 1.1 4.0 4
18/10/2020 13:30 19.5 37 468.2 600 0.0 1.3 4.5 4
18/10/2020 13:40 19.2 37 400.3 584 0.0 1.3 4.5 39
18/10/2020 13:50 19.0 37 308.7 466 0.0 0.6 2.2 57
18/10/2020 14:00 18.9 37 289.9 382 0.0 0.8 2.8 55
18/10/2020 14:10 18.7 39 261.1 242 0.0 0.8 2.7 23
18/10/2020 14:20 18.9 39 348.0 330 0.0 1.1 3.8 86
18/10/2020 14:30 19.8 37 511.8 600 0.0 1.3 4.8 70
18/10/2020 14:40 20.1 36 431.3 600 0.0 1.9 6.7 60
18/10/2020 14:50 19.7 36 285.3 474 0.0 1.8 6.6 68
18/10/2020 15:00 19.3 37 199.8 20 0.0 1.7 6.3 88
18/10/2020 15:10 18.8 38 164.7 0 0.0 2.0 7.2 79
18/10/2020 15:20 18.4 38 149.8 0 0.0 1.6 5.8 90
18/10/2020 15:30 18.5 39 149.2 0 0.0 1.7 6.2 91
18/10/2020 15:40 18.4 39 143.8 76 0.0 1.5 5.3 82
18/10/2020 15:50 18.7 38 259.5 600 0.0 1.2 4.4 89
18/10/2020 16:00 19.5 34 287.0 600 0.0 1.1 3.9 121
18/10/2020 16:10 19.7 34 215.3 600 0.0 1.3 4.7 112
18/10/2020 16:20 19.7 33 180.0 600 0.0 1.5 5.3 105
18/10/2020 16:30 19.6 33 140.7 600 0.0 1.6 5.6 105
18/10/2020 16:40 19.2 33 111.9 600 0.0 1.6 5.8 111
18/10/2020 16:50 18.7 34 72.3 600 0.0 1.5 5.4 155
18/10/2020 17:00 17.9 33 30.9 316 0.0 2.1 7.5 131
18/10/2020 17:10 17.1 35 3.0 0 0.0 2.5 8.9 117
18/10/2020 17:20 16.5 39 0.0 0 0.0 2.8 10.2 128
18/10/2020 17:30 16.2 44 0.0 0 0.0 2.6 9.5 131
18/10/2020 17:40 16.0 46 0.0 0 0.0 2.4 8.7 130
18/10/2020 17:50 15.8 48 0.0 0 0.0 2.0 7.3 118
18/10/2020 18:00 15.6 49 0.0 0 0.0 2.1 7.6 137
18/10/2020 18:10 15.5 50 0.0 0 0.0 2.4 8.6 144
18/10/2020 18:20 15.2 51 0.0 0 0.0 1.7 6.2 115
18/10/2020 18:30 14.9 53 0.0 0 0.0 2.8 10.0 110
18/10/2020 18:40 14.7 54 0.0 0 0.0 3.2 11.6 112
18/10/2020 18:50 14.7 54 0.0 0 0.0 3.4 12.3 108
18/10/2020 19:00 14.4 53 0.0 0 0.0 3.6 13.1 101
18/10/2020 19:10 14.2 52 0.0 0 0.0 4.0 14.3 102
18/10/2020 19:20 14.1 53 0.0 0 0.0 3.9 14.1 103
18/10/2020 19:30 14.0 51 0.0 0 0.0 4.4 15.8 102
18/10/2020 19:40 14.2 50 0.0 0 0.0 4.2 15.2 97
18/10/2020 19:50 13.9 51 0.0 0 0.0 4.3 15.3 98
18/10/2020 20:00 13.7 50 0.0 0 0.0 4.2 15.1 101
18/10/2020 20:10 13.6 50 0.0 0 0.0 4.4 15.7 98
18/10/2020 20:20 13.4 51 0.0 0 0.0 4.5 16.3 102
18/10/2020 20:30 13.0 53 0.0 0 0.0 4.2 15.1 106
18/10/2020 20:40 12.7 54 0.0 0 0.0 4.3 15.4 109
18/10/2020 20:50 12.5 55 0.0 0 0.0 4.0 14.4 105
18/10/2020 21:00 12.1 56 0.0 0 0.0 4.1 14.7 103
18/10/2020 21:10 11.8 57 0.0 0 0.0 3.9 14.0 105
18/10/2020 21:20 11.5 57 0.0 0 0.0 3.7 13.2 103
18/10/2020 21:30 11.5 57 0.0 0 0.0 4.0 14.4 105
18/10/2020 21:40 11.6 57 0.0 0 0.0 4.1 14.9 97
18/10/2020 21:50 11.5 56 0.0 0 0.0 4.6 16.4 100
18/10/2020 22:00 11.4 55 0.0 0 0.0 4.8 17.3 102
18/10/2020 22:10 11.3 55 0.0 0 0.0 5.0 18.0 102
18/10/2020 22:20 11.4 54 0.0 0 0.0 5.2 18.6 100
18/10/2020 22:30 11.5 53 0.0 0 0.0 5.5 19.6 102
18/10/2020 22:40 11.4 53 0.0 0 0.0 5.7 20.3 102
18/10/2020 22:50 11.2 54 0.0 0 0.0 5.5 19.7 99
18/10/2020 23:00 10.9 56 0.0 0 0.0 5.5 19.9 97
18/10/2020 23:10 10.7 57 0.0 0 0.0 5.5 19.8 99
18/10/2020 23:20 10.6 58 0.0 0 0.0 5.4 19.3 101
18/10/2020 23:30 10.3 59 0.0 0 0.0 4.9 17.6 100
18/10/2020 23:40 10.1 60 0.0 0 0.0 4.9 17.5 103
18/10/2020 23:50 9.9 61 0.0 0 0.0 4.9 17.7 103
Anterior Página 1 de 1 Siguiente

NOTA: Tipo de datos según el color:
   - Valores diarios o 10 minutos correctos
   - Valores diarios calculados a partir de un número de datos 10 minutos menor que 144 y mayor que 120, o de un número de datos semihorarios menor que 48 y mayor que 40 (caso de las estaciones de INTIA Y Ministerio)
   - Valores diez minutos estimados


Contacto        Enlaces        Aviso legal